aviador You're here:

KTOL Decoded Metar

TOLEDO in OH, USA
Report Time2017-09-25 19:52:00
UTC Time2017-09-25 20:30:59
Flight Rules vfr VFR
WindCalm
Visibility9999 m
Phenomena:N/A
Clouds:Scattered 065 Hf
Expected CloudBase > 6,400 ft AGL from Temp-Dew spread
CeilingNone
Temp33°C (ISA +19)
Dew Point17°C (38% RH)
Heat Index33.4°C
QNH1016 hPa
Density Alt3,051 ft
Elevation689 ft
Report Wrong Elevation
Raw Report
KTOL 251952Z 00000KT 10SM SCT065 33/17 A2999 RMK AO2 SLP149
T03280172 $=

Extra information for KTOL:More info

Metar Taf Metar & Taf Last 4 Metars F.Rules Stats Wind Profile Meteogram Temp Stats Airport Information Weather charts Add Link Nearby VenuesMetar ALERT Operation Metar Decoded Social comments

AIRNAV info for KTOL